Time;durP1;ratioP1;P1;durP2;ratioP2;P2;SDS_P1;SDS_P2;PMS_P1;PMS_P2;Temp;Humidity;BMP_temperature;BMP_pressure;BME280_temperature;BME280_humidity;BME280_pressure;Samples;Min_cycle;Max_cycle;Signal;HPM_P1;HPM_P2
2023/06/11 00:01:19;;;;;;;3.80;2.27;;;;;;;24.06;59.08;98219.59;6187265;23;20161;-87
2023/06/11 00:03:52;;;;;;;6.00;2.30;;;;;;;24.07;59.30;98215.06;6187460;23;20232;-87
2023/06/11 00:06:23;;;;;;;4.63;2.70;;;;;;;24.07;59.48;98220.41;6187968;23;20173;-87
2023/06/11 00:08:51;;;;;;;3.97;1.93;;;;;;;24.16;58.71;98213.97;6187277;23;20131;-88
2023/06/11 00:11:18;;;;;;;5.97;2.60;;;;;;;24.06;59.40;98224.94;6187479;23;20529;-87
2023/06/11 00:13:45;;;;;;;4.23;2.00;;;;;;;24.09;59.32;98218.41;6187101;23;20174;-88
2023/06/11 00:16:13;;;;;;;5.00;2.30;;;;;;;24.16;58.96;98213.97;6187438;23;20261;-87
2023/06/11 00:18:41;;;;;;;3.60;2.00;;;;;;;24.10;58.79;98226.28;6161543;23;20150;-87
2023/06/11 00:21:11;;;;;;;6.57;2.20;;;;;;;24.09;59.20;98226.44;6187409;23;20147;-87
2023/06/11 00:23:38;;;;;;;5.37;2.20;;;;;;;24.13;58.91;98225.91;6187039;23;20143;-88
2023/06/11 00:26:07;;;;;;;3.23;1.97;;;;;;;24.11;59.05;98224.44;6186829;23;20212;-88
2023/06/11 00:28:34;;;;;;;7.37;2.20;;;;;;;24.09;59.13;98226.44;6186900;23;20157;-88
2023/06/11 00:31:03;;;;;;;4.23;2.07;;;;;;;24.07;58.94;98223.94;6186972;23;20150;-88
2023/06/11 00:33:30;;;;;;;4.83;2.03;;;;;;;24.05;58.72;98227.81;6186681;23;20174;-87
2023/06/11 00:35:57;;;;;;;4.10;2.43;;;;;;;24.13;59.08;98230.41;6186864;23;20147;-87
2023/06/11 00:38:24;;;;;;;6.73;2.87;;;;;;;24.12;58.88;98231.44;6160838;23;20155;-87
2023/06/11 00:40:50;;;;;;;3.30;1.90;;;;;;;24.13;59.00;98230.41;6186776;23;20201;-88
2023/06/11 00:43:21;;;;;;;3.33;1.90;;;;;;;24.14;59.06;98234.72;6187242;23;20157;-88
2023/06/11 00:45:51;;;;;;;5.93;2.30;;;;;;;24.08;59.54;98227.44;6187204;23;20134;-88
2023/06/11 00:48:21;;;;;;;4.67;2.30;;;;;;;24.05;59.81;98228.66;6187129;23;20590;-88
2023/06/11 00:50:51;;;;;;;4.20;2.03;;;;;;;24.10;59.75;98230.78;6186756;23;20153;-88
2023/06/11 00:53:20;;;;;;;5.07;2.50;;;;;;;24.05;60.30;98234.00;6186829;23;20238;-88
2023/06/11 00:55:46;;;;;;;4.57;2.50;;;;;;;23.87;60.58;98240.75;6187452;23;20221;-88
2023/06/11 00:58:17;;;;;;;5.30;3.03;;;;;;;23.89;60.79;98246.75;6135610;23;20577;-88
2023/06/11 01:00:50;;;;;;;5.60;2.50;;;;;;;23.90;60.71;98240.41;6187395;23;20464;-88
2023/06/11 01:03:21;;;;;;;4.53;2.40;;;;;;;23.97;60.71;98238.63;6187086;23;20677;-89
2023/06/11 01:05:49;;;;;;;5.03;2.50;;;;;;;24.02;60.50;98241.56;6187336;23;20208;-88
2023/06/11 01:08:17;;;;;;;6.43;2.67;;;;;;;24.08;60.17;98238.16;6186572;23;20575;-88
2023/06/11 01:10:44;;;;;;;5.00;2.90;;;;;;;24.09;59.90;98247.84;6186573;23;20150;-89
2023/06/11 01:13:11;;;;;;;6.20;2.80;;;;;;;24.08;60.17;98238.16;6186534;23;20178;-88
2023/06/11 01:15:36;;;;;;;6.37;2.80;;;;;;;24.12;60.42;98242.13;6186904;23;20161;-88
2023/06/11 01:18:10;;;;;;;5.60;2.57;;;;;;;24.08;60.05;98244.34;6160507;23;20493;-88
2023/06/11 01:21:06;;;;;;;5.13;2.93;;;;;;;24.04;60.63;98242.22;6186911;23;20135;-88
2023/06/11 01:23:43;;;;;;;6.33;2.70;;;;;;;23.92;60.91;98238.34;6158692;23;20178;-88
2023/06/11 01:26:34;;;;;;;5.80;2.63;;;;;;;23.92;60.96;98236.50;6186712;23;20135;-88
2023/06/11 01:29:04;;;;;;;6.17;2.73;;;;;;;23.97;60.98;98241.31;6187093;23;20135;-88
2023/06/11 01:31:37;;;;;;;4.27;2.50;;;;;;;23.99;61.09;98244.63;6186208;23;20147;-88
2023/06/11 01:34:04;;;;;;;5.57;3.07;;;;;;;24.03;60.84;98241.38;6186663;23;20217;-88
2023/06/11 01:36:34;;;;;;;8.23;3.77;;;;;;;23.94;60.81;98241.66;6160355;23;20444;-89
2023/06/11 01:39:01;;;;;;;5.43;3.00;;;;;;;23.96;61.01;98239.63;6186077;23;20229;-88
2023/06/11 01:41:28;;;;;;;6.00;2.70;;;;;;;23.89;61.29;98246.75;6186679;23;20137;-88
2023/06/11 01:43:54;;;;;;;4.47;3.03;;;;;;;23.77;61.79;98244.53;6186199;23;20197;-88
2023/06/11 01:46:20;;;;;;;9.97;3.47;;;;;;;23.81;61.70;98242.34;6186602;23;20587;-88
2023/06/11 01:48:45;;;;;;;4.27;2.60;;;;;;;23.80;61.86;98240.66;6160308;23;20150;-88
2023/06/11 01:51:13;;;;;;;7.20;3.00;;;;;;;23.74;62.07;98239.56;6160284;23;20173;-88
2023/06/11 01:53:42;;;;;;;8.73;3.23;;;;;;;23.82;61.67;98239.47;6186114;23;20616;-89
2023/06/11 01:56:07;;;;;;;5.40;3.10;;;;;;;23.90;61.70;98245.75;6186495;23;20639;-88
2023/06/11 01:58:33;;;;;;;5.23;3.63;;;;;;;23.85;61.75;98244.44;6160214;23;20151;-88
2023/06/11 02:00:59;;;;;;;6.60;2.90;;;;;;;23.94;61.53;98247.03;6186151;23;20154;-89
2023/06/11 02:03:25;;;;;;;7.73;2.70;;;;;;;23.85;61.56;98244.44;6186762;23;20209;-88
2023/06/11 02:05:51;;;;;;;5.67;3.23;;;;;;;23.78;61.70;98248.88;6186070;23;20162;-88
2023/06/11 02:08:17;;;;;;;5.60;3.30;;;;;;;23.76;61.74;98242.06;6186416;23;20161;-88
2023/06/11 02:10:44;;;;;;;8.90;3.13;;;;;;;23.72;62.06;98238.91;6186108;23;20204;-88
2023/06/11 02:13:09;;;;;;;8.23;3.53;;;;;;;23.73;61.68;98248.63;6185915;23;20175;-88
2023/06/11 02:15:36;;;;;;;5.27;2.80;;;;;;;23.78;61.52;98243.53;6186033;23;20218;-88
2023/06/11 02:18:02;;;;;;;5.07;2.97;;;;;;;23.71;61.50;98247.97;6159957;23;20668;-88
2023/06/11 02:20:27;;;;;;;5.70;2.87;;;;;;;23.73;61.53;98240.59;6186271;23;20146;-88
2023/06/11 02:22:53;;;;;;;5.00;3.07;;;;;;;23.73;61.43;98251.28;6185946;23;20213;-87
2023/06/11 02:25:20;;;;;;;6.13;3.03;;;;;;;23.65;61.71;98246.03;6186528;23;20150;-86
2023/06/11 02:27:49;;;;;;;6.77;3.30;;;;;;;23.75;61.58;98243.91;6186181;23;20183;-88
2023/06/11 02:30:16;;;;;;;5.97;3.17;;;;;;;23.76;61.52;98240.22;6185745;23;20513;-88
2023/06/11 02:32:42;;;;;;;4.97;2.70;;;;;;;23.78;61.46;98248.06;6185617;23;20610;-88
2023/06/11 02:35:09;;;;;;;8.23;3.00;;;;;;;23.72;61.42;98238.91;6185747;23;20474;-88
2023/06/11 02:37:36;;;;;;;7.13;3.40;;;;;;;23.75;61.20;98241.22;6186074;23;20575;-88
2023/06/11 02:40:01;;;;;;;6.13;3.43;;;;;;;23.68;61.42;98243.00;6159470;23;20589;-88
2023/06/11 02:42:28;;;;;;;5.13;2.90;;;;;;;23.63;61.82;98247.22;6185901;23;20229;-87
2023/06/11 02:44:55;;;;;;;8.93;3.20;;;;;;;23.70;61.39;98243.63;6185690;23;20160;-87
2023/06/11 02:47:21;;;;;;;5.63;3.00;;;;;;;23.73;61.24;98237.91;6185741;23;20151;-87
2023/06/11 02:49:48;;;;;;;6.87;3.60;;;;;;;23.70;61.22;98240.97;6185549;23;20147;-87
2023/06/11 02:52:15;;;;;;;6.63;3.20;;;;;;;23.60;61.36;98239.56;6186006;23;20590;-88
2023/06/11 02:54:41;;;;;;;5.93;3.03;;;;;;;23.69;61.01;98238.44;6185982;23;20154;-88
2023/06/11 02:57:08;;;;;;;6.60;3.73;;;;;;;23.68;60.98;98243.00;6185549;23;20216;-88
2023/06/11 02:59:35;;;;;;;5.00;3.20;;;;;;;23.67;61.22;98237.81;6185587;23;20150;-88
2023/06/11 03:02:02;;;;;;;5.47;3.27;;;;;;;23.60;61.26;98242.25;6159550;23;20169;-88
2023/06/11 03:04:28;;;;;;;5.13;2.87;;;;;;;23.61;61.35;98236.69;6185610;23;20155;-88
2023/06/11 03:06:55;;;;;;;4.37;3.10;;;;;;;23.67;61.29;98246.66;6186563;23;20209;-88
2023/06/11 03:09:24;;;;;;;5.60;3.03;;;;;;;23.54;61.89;98243.81;6185723;23;20221;-87
2023/06/11 03:11:50;;;;;;;7.80;3.70;;;;;;;23.57;61.57;98246.13;6186055;23;20153;-88
2023/06/11 03:14:17;;;;;;;6.93;3.40;;;;;;;23.61;61.33;98242.03;6159490;23;20193;-87
2023/06/11 03:16:44;;;;;;;6.83;3.40;;;;;;;23.54;61.85;98241.13;6185857;23;20211;-88
2023/06/11 03:19:09;;;;;;;6.03;3.90;;;;;;;23.48;61.95;98241.84;6159521;23;20156;-88
2023/06/11 03:21:35;;;;;;;6.10;3.50;;;;;;;23.46;62.33;98249.25;6185310;23;20166;-88
2023/06/11 03:24:00;;;;;;;8.77;3.40;;;;;;;23.42;62.47;98252.47;6159426;23;20158;-88
2023/06/11 03:26:27;;;;;;;10.37;3.53;;;;;;;23.43;62.06;98249.59;6159406;23;20221;-88
2023/06/11 03:28:54;;;;;;;5.50;3.47;;;;;;;23.35;62.51;98248.84;6185770;23;20217;-88
2023/06/11 03:31:20;;;;;;;8.30;4.20;;;;;;;23.29;63.05;98263.78;6185329;23;20146;-87
2023/06/11 03:33:46;;;;;;;6.20;3.30;;;;;;;23.34;62.86;98260.53;6185310;23;20182;-88
2023/06/11 03:36:13;;;;;;;7.50;2.70;;;;;;;23.41;62.73;98256.16;6185404;23;20285;-88
2023/06/11 03:38:40;;;;;;;7.67;4.03;;;;;;;23.41;62.86;98254.31;6185333;23;20150;-87
2023/06/11 03:41:07;;;;;;;5.17;3.40;;;;;;;23.38;62.90;98252.00;6185186;23;20547;-87
2023/06/11 03:43:33;;;;;;;5.47;3.20;;;;;;;23.30;63.28;98262.75;6185628;23;20170;-87
2023/06/11 03:46:00;;;;;;;5.60;2.93;;;;;;;23.35;63.41;98263.03;6185375;23;20154;-87
2023/06/11 03:48:27;;;;;;;6.77;3.27;;;;;;;23.32;63.42;98263.41;6185696;23;20590;-87
2023/06/11 03:50:53;;;;;;;11.37;3.00;;;;;;;23.24;63.86;98263.50;6159383;23;20158;-87
2023/06/11 03:53:21;;;;;;;10.73;3.73;;;;;;;23.24;63.90;98263.50;6185136;23;20257;-88
2023/06/11 03:55:48;;;;;;;7.60;3.10;;;;;;;23.25;64.04;98257.09;6185193;23;20297;-88
2023/06/11 03:58:15;;;;;;;8.67;3.57;;;;;;;23.27;64.09;98264.97;6185523;23;20157;-87
2023/06/11 04:00:41;;;;;;;6.60;3.37;;;;;;;23.36;63.90;98264.69;6185579;23;20160;-87
2023/06/11 04:03:08;;;;;;;7.53;3.27;;;;;;;23.26;64.22;98264.13;6185579;23;20146;-87
2023/06/11 04:05:38;;;;;;;9.57;3.50;;;;;;;23.33;63.70;98266.91;6159297;23;20180;-87
2023/06/11 04:08:04;;;;;;;5.07;3.20;;;;;;;23.38;63.56;98273.41;6185173;23;20146;-87
2023/06/11 04:10:30;;;;;;;6.00;3.40;;;;;;;23.36;63.51;98270.03;6159078;23;20158;-87
2023/06/11 04:12:57;;;;;;;7.03;3.77;;;;;;;23.31;64.05;98267.09;6185082;23;20613;-87
2023/06/11 04:18:44;;;;;;;7.47;3.63;;;;;;;23.29;63.92;98263.78;6185599;23;20200;-87
2023/06/11 04:21:10;;;;;;;9.97;3.17;;;;;;;23.36;64.09;98264.69;6185526;23;20634;-88
2023/06/11 04:23:36;;;;;;;6.00;3.47;;;;;;;23.39;63.98;98261.69;6185220;23;20170;-88
2023/06/11 04:26:02;;;;;;;7.17;3.27;;;;;;;23.43;64.02;98260.31;6185208;23;20150;-88
2023/06/11 04:28:29;;;;;;;5.90;3.47;;;;;;;23.51;63.86;98267.41;6185510;23;20146;-87
2023/06/11 04:30:57;;;;;;;8.03;3.80;;;;;;;23.64;63.44;98257.75;6185455;23;20154;-88
2023/06/11 04:33:32;;;;;;;8.07;3.23;;;;;;;23.71;63.69;98269.38;6186421;23;20249;-88
2023/06/11 04:36:00;;;;;;;8.10;3.47;;;;;;;23.73;63.76;98270.03;6160991;23;20220;-88
2023/06/11 04:38:28;;;;;;;7.20;3.23;;;;;;;23.82;62.99;98271.56;6187597;23;20157;-88
2023/06/11 04:40:56;;;;;;;6.10;2.97;;;;;;;23.85;63.06;98278.41;6187670;23;20585;-88
2023/06/11 04:43:22;;;;;;;6.37;3.20;;;;;;;23.89;63.35;98285.06;6186921;23;20243;-89
2023/06/11 04:45:49;;;;;;;8.80;2.50;;;;;;;24.04;63.50;98285.03;6187191;23;20154;-88
2023/06/11 04:48:20;;;;;;;6.63;3.17;;;;;;;24.14;62.85;98283.78;6186888;23;20163;-88
2023/06/11 04:50:45;;;;;;;8.47;3.50;;;;;;;24.21;63.29;98283.88;6187519;23;20523;-88
2023/06/11 04:53:12;;;;;;;7.83;3.27;;;;;;;24.29;62.47;98284.56;6186684;23;20174;-88
2023/06/11 04:55:40;;;;;;;6.40;3.50;;;;;;;24.43;62.60;98285.56;6186764;23;20147;-88
2023/06/11 04:58:09;;;;;;;6.70;3.33;;;;;;;24.59;62.56;98274.63;6186763;23;20221;-89
2023/06/11 05:00:36;;;;;;;5.17;3.00;;;;;;;24.57;61.27;98278.50;6186590;23;20217;-88
2023/06/11 05:03:03;;;;;;;6.30;3.40;;;;;;;24.63;61.07;98281.28;6186659;23;20142;-88
2023/06/11 05:05:30;;;;;;;5.77;3.40;;;;;;;24.62;61.05;98284.97;6187010;23;20147;-88
2023/06/11 05:07:55;;;;;;;6.63;3.87;;;;;;;24.71;60.96;98278.44;6186606;23;20222;-88
2023/06/11 05:10:22;;;;;;;4.37;2.73;;;;;;;24.94;61.67;98283.66;6186698;23;20638;-88
2023/06/11 05:12:47;;;;;;;4.87;3.03;;;;;;;25.13;61.38;98276.81;6186810;23;20201;-88
2023/06/11 05:15:14;;;;;;;6.20;3.20;;;;;;;25.39;60.67;98285.91;6186485;23;20594;-89
2023/06/11 05:17:41;;;;;;;4.90;3.27;;;;;;;25.64;59.55;98283.63;6160602;23;20155;-88
2023/06/11 05:20:08;;;;;;;6.07;3.37;;;;;;;25.75;59.04;98291.16;6186581;23;20151;-88
2023/06/11 05:22:35;;;;;;;6.90;3.60;;;;;;;25.77;58.80;98296.31;6186838;23;20150;-89
2023/06/11 05:25:02;;;;;;;5.07;3.13;;;;;;;25.87;59.12;98292.25;6160463;23;20154;-89
2023/06/11 05:27:29;;;;;;;5.20;2.77;;;;;;;26.08;58.61;98294.00;6187203;23;20222;-88
2023/06/11 05:29:57;;;;;;;7.07;3.43;;;;;;;26.16;57.90;98299.25;6160494;23;20173;-88
2023/06/11 05:32:24;;;;;;;8.97;3.90;;;;;;;26.06;57.90;98302.28;6160292;23;20162;-88
2023/06/11 05:34:51;;;;;;;8.30;4.30;;;;;;;26.05;58.36;98300.59;6186757;23;20229;-88
2023/06/11 05:37:17;;;;;;;6.37;3.20;;;;;;;26.04;58.27;98300.81;6160313;23;20529;-89
2023/06/11 05:39:45;;;;;;;5.73;3.10;;;;;;;26.04;58.37;98303.50;6160184;23;20256;-89
2023/06/11 05:42:10;;;;;;;5.87;3.00;;;;;;;25.98;58.52;98310.50;6186395;23;20146;-88
2023/06/11 05:44:37;;;;;;;10.23;3.87;;;;;;;25.99;58.48;98304.09;6185962;23;20241;-88
2023/06/11 05:47:03;;;;;;;8.23;4.07;;;;;;;25.87;58.38;98305.69;6186641;23;20221;-88
2023/06/11 05:49:30;;;;;;;5.33;3.40;;;;;;;25.86;59.70;98300.50;6186287;23;20190;-88
2023/06/11 05:51:57;;;;;;;6.57;3.43;;;;;;;25.93;59.54;98310.25;6186596;23;20575;-89
2023/06/11 05:54:23;;;;;;;7.20;3.67;;;;;;;25.90;58.76;98307.97;6186049;23;20205;-88
2023/06/11 05:56:50;;;;;;;10.23;3.47;;;;;;;26.03;58.92;98305.34;6186118;23;20229;-88
2023/06/11 05:59:17;;;;;;;8.40;3.57;;;;;;;26.05;57.72;98302.47;6186182;23;20151;-87
2023/06/11 06:01:45;;;;;;;5.43;3.37;;;;;;;26.05;57.59;98302.47;6186116;23;20184;-88
2023/06/11 06:04:14;;;;;;;5.87;3.33;;;;;;;25.91;57.80;98304.25;6186089;23;20150;-88
2023/06/11 06:06:41;;;;;;;5.47;3.30;;;;;;;26.00;58.44;98311.13;6186437;23;20605;-88
2023/06/11 06:09:08;;;;;;;5.53;3.27;;;;;;;26.09;57.12;98307.25;6159955;23;20165;-88
2023/06/11 06:11:34;;;;;;;5.17;2.90;;;;;;;26.15;57.96;98309.16;6159972;23;20538;-88
2023/06/11 06:14:02;;;;;;;7.00;3.03;;;;;;;26.15;56.21;98313.72;6185816;23;20685;-88
2023/06/11 06:16:31;;;;;;;4.60;2.60;;;;;;;26.00;56.36;98319.19;6159870;23;20161;-88
2023/06/11 06:18:58;;;;;;;4.73;3.03;;;;;;;26.02;56.91;98319.81;6185791;23;20485;-88
2023/06/11 06:21:23;;;;;;;5.00;3.13;;;;;;;25.92;56.85;98323.88;6186170;23;20151;-88
2023/06/11 06:23:49;;;;;;;5.70;2.70;;;;;;;25.87;56.20;98318.25;6185575;23;20605;-88
2023/06/11 06:26:15;;;;;;;4.10;2.30;;;;;;;26.10;57.25;98325.00;6185448;23;20150;-88
2023/06/11 06:28:41;;;;;;;5.23;2.60;;;;;;;26.20;55.90;98319.31;6185783;23;20154;-88
2023/06/11 06:31:07;;;;;;;5.73;2.83;;;;;;;26.40;56.13;98332.84;6185969;23;20528;-89
2023/06/11 06:33:35;;;;;;;8.43;2.30;;;;;;;26.33;55.05;98323.94;6185824;23;20186;-88
2023/06/11 06:36:03;;;;;;;5.13;2.67;;;;;;;26.29;54.63;98322.66;6186118;23;20157;-87
2023/06/11 06:38:28;;;;;;;5.23;2.67;;;;;;;26.38;55.89;98324.16;6159503;23;20604;-88
2023/06/11 06:40:55;;;;;;;10.20;2.77;;;;;;;26.66;55.71;98314.13;6156147;23;20206;-88
2023/06/11 06:43:21;;;;;;;4.80;2.57;;;;;;;26.93;56.93;98315.88;6159795;23;20165;-88
2023/06/11 06:45:51;;;;;;;7.10;2.50;;;;;;;27.12;55.02;98320.44;6185852;23;20150;-89
2023/06/11 06:48:31;;;;;;;4.27;2.50;;;;;;;27.23;53.40;98322.53;6159665;23;20154;-88
2023/06/11 06:50:58;;;;;;;4.23;2.40;;;;;;;27.36;53.60;98317.16;6186272;23;20131;-88
2023/06/11 06:53:26;;;;;;;4.70;2.60;;;;;;;27.32;52.30;98321.31;6157982;23;20181;-88
2023/06/11 06:55:53;;;;;;;6.57;2.70;;;;;;;27.41;51.80;98319.28;6185457;23;20154;-88
2023/06/11 06:58:18;;;;;;;4.82;2.78;;;;;;;27.31;50.75;98314.25;6158150;23;20154;-87
2023/06/11 07:00:52;;;;;;;4.43;2.20;;;;;;;27.43;52.35;98309.13;6184551;23;20158;-88
2023/06/11 07:03:17;;;;;;;7.20;3.00;;;;;;;27.46;51.23;98310.59;6159709;23;20146;-88
2023/06/11 07:05:54;;;;;;;4.72;3.10;;;;;;;27.63;50.84;98312.63;6159370;23;20158;-87
2023/06/11 07:08:24;;;;;;;5.50;2.30;;;;;;;27.66;51.24;98317.59;6159732;23;20154;-88
2023/06/11 07:11:01;;;;;;;4.47;2.60;;;;;;;27.81;50.43;98314.66;6185450;23;20531;-88
2023/06/11 07:13:49;;;;;;;5.43;2.53;;;;;;;27.84;50.15;98319.66;6158039;23;20197;-88
2023/06/11 07:16:32;;;;;;;4.30;2.25;;;;;;;28.15;51.72;98314.41;6184693;23;20166;-89
2023/06/11 07:19:11;;;;;;;6.43;2.90;;;;;;;28.16;49.12;98318.78;6185540;23;20201;-88
2023/06/11 07:21:44;;;;;;;4.57;2.67;;;;;;;28.36;49.13;98319.53;6157539;23;20590;-88
2023/06/11 07:24:09;;;;;;;4.75;2.30;;;;;;;28.54;48.04;98319.66;6155994;23;20464;-89
2023/06/11 07:26:36;;;;;;;5.18;2.30;;;;;;;28.66;44.55;98327.09;6159605;23;20161;-88
2023/06/11 07:29:03;;;;;;;5.13;2.10;;;;;;;28.59;43.15;98327.09;6185557;23;20154;-94
2023/06/11 07:31:29;;;;;;;4.90;2.63;;;;;;;28.71;45.46;98322.72;6159763;23;20158;-93
2023/06/11 07:33:54;;;;;;;7.07;2.55;;;;;;;28.88;43.41;98328.47;6184958;23;20184;-95
2023/06/11 07:36:21;;;;;;;4.90;2.13;;;;;;;28.96;44.66;98323.59;6158755;23;20158;-94
2023/06/11 07:38:46;;;;;;;5.13;2.63;;;;;;;29.09;43.74;98320.81;6159779;23;20154;-95
2023/06/11 07:41:13;;;;;;;5.32;2.40;;;;;;;29.20;43.85;98328.25;6159347;23;20193;-93
2023/06/11 07:43:39;;;;;;;5.07;2.33;;;;;;;29.36;43.00;98326.91;6185828;23;20174;-95
2023/06/11 07:46:05;;;;;;;6.53;3.05;;;;;;;29.41;41.13;98326.22;6185175;23;20483;-89
2023/06/11 07:48:31;;;;;;;5.50;2.80;;;;;;;29.49;41.46;98325.97;6185297;23;20491;-88
2023/06/11 07:50:57;;;;;;;6.00;2.63;;;;;;;29.56;41.85;98321.34;6183983;23;20158;-88
2023/06/11 07:53:24;;;;;;;5.43;2.40;;;;;;;29.58;41.98;98325.47;6185410;23;20175;-88
2023/06/11 07:55:56;;;;;;;6.75;2.65;;;;;;;29.60;42.28;98325.25;6185065;23;20147;-89
2023/06/11 07:58:22;;;;;;;6.55;2.55;;;;;;;29.71;43.47;98313.72;6184027;23;20147;-89
2023/06/11 08:00:50;;;;;;;5.07;2.53;;;;;;;29.87;43.29;98317.75;6156029;23;20155;-88
2023/06/11 08:03:17;;;;;;;5.10;2.50;;;;;;;30.06;44.80;98314.03;6184851;23;20220;-89
2023/06/11 08:05:44;;;;;;;4.88;2.83;;;;;;;30.30;42.44;98308.53;6185510;23;20222;-89
2023/06/11 08:08:13;;;;;;;6.07;2.95;;;;;;;30.43;40.96;98321.09;6187474;23;20586;-93
2023/06/11 08:10:38;;;;;;;6.78;2.67;;;;;;;30.57;42.28;98308.22;6160866;23;20594;-96
2023/06/11 08:13:04;;;;;;;4.82;2.72;;;;;;;30.60;43.33;98315.91;6159826;23;20188;-94
2023/06/11 08:15:31;;;;;;;6.18;2.80;;;;;;;30.84;43.93;98312.25;6186976;23;20225;-93
2023/06/11 08:18:01;;;;;;;6.57;3.35;;;;;;;31.12;42.18;98306.22;6187488;23;20146;-94
2023/06/11 08:20:27;;;;;;;4.22;2.17;;;;;;;30.92;43.48;98312.75;6161942;23;20154;-94
2023/06/11 08:22:55;;;;;;;5.07;2.25;;;;;;;31.22;41.39;98311.91;6161712;23;20154;-94
2023/06/11 08:25:20;;;;;;;6.28;2.78;;;;;;;31.40;39.76;98306.41;6161149;23;20166;-95
2023/06/11 08:27:47;;;;;;;4.80;2.70;;;;;;;31.59;40.54;98311.53;6161644;23;20201;-94
2023/06/11 08:30:14;;;;;;;6.05;3.05;;;;;;;31.77;41.28;98307.03;6160971;23;20155;-94
2023/06/11 08:32:40;;;;;;;7.40;2.95;;;;;;;31.98;39.91;98318.13;6161159;23;20162;-94
2023/06/11 08:35:08;;;;;;;5.35;2.53;;;;;;;32.06;38.35;98323.22;6131357;23;20607;-94
2023/06/11 08:37:34;;;;;;;8.93;2.80;;;;;;;32.00;38.14;98326.03;6157053;23;20163;-92
2023/06/11 08:40:00;;;;;;;5.78;2.10;;;;;;;31.85;39.25;98320.25;6156811;23;20631;-92
2023/06/11 08:42:26;;;;;;;4.85;2.72;;;;;;;32.05;39.01;98313.41;6131155;23;20155;-90
2023/06/11 08:44:53;;;;;;;5.55;2.88;;;;;;;32.23;38.95;98321.41;6131111;23;20245;-92
2023/06/11 08:47:20;;;;;;;5.60;2.40;;;;;;;32.38;38.18;98323.63;6157023;23;20147;-92
2023/06/11 08:49:47;;;;;;;4.38;2.30;;;;;;;32.55;36.89;98323.72;6156906;23;20182;-88
2023/06/11 08:52:14;;;;;;;9.45;2.55;;;;;;;32.72;37.73;98332.75;6156446;23;20476;-89
2023/06/11 08:54:41;;;;;;;4.13;2.28;;;;;;;32.88;36.69;98323.84;6156712;23;20189;-88
2023/06/11 08:57:08;;;;;;;6.97;2.20;;;;;;;32.82;36.65;98327.53;6156797;23;20147;-92
2023/06/11 08:59:35;;;;;;;7.82;2.47;;;;;;;32.82;37.20;98335.66;6157110;23;20151;-91
2023/06/11 09:02:03;;;;;;;5.53;2.05;;;;;;;32.89;36.71;98324.69;6156901;23;20147;-90
2023/06/11 09:04:30;;;;;;;4.80;2.50;;;;;;;32.88;38.37;98323.84;6131432;23;20162;-91
2023/06/11 09:07:00;;;;;;;4.40;2.45;;;;;;;33.02;36.14;98325.19;6156837;23;20226;-91
2023/06/11 09:09:30;;;;;;;5.18;2.08;;;;;;;33.17;36.75;98321.97;6157107;23;20162;-91
2023/06/11 09:11:57;;;;;;;5.45;2.22;;;;;;;33.31;37.70;98313.25;6156908;23;20173;-91
2023/06/11 09:14:23;;;;;;;5.25;2.08;;;;;;;33.36;36.96;98307.09;6130838;23;20190;-93
2023/06/11 09:16:49;;;;;;;4.53;2.42;;;;;;;33.55;37.17;98310.34;6130607;23;20181;-92
2023/06/11 09:19:16;;;;;;;3.85;2.10;;;;;;;33.51;34.36;98296.47;6155358;23;20517;-91
2023/06/11 09:21:56;;;;;;;3.58;1.75;;;;;;;33.50;34.18;98304.84;6156217;23;20230;-92
2023/06/11 09:24:23;;;;;;;8.40;2.15;;;;;;;33.59;34.31;98306.94;6154655;23;20171;-93
2023/06/11 09:26:57;;;;;;;4.72;2.00;;;;;;;33.78;35.10;98302.06;6131618;23;20169;-94
2023/06/11 09:29:26;;;;;;;3.03;1.77;;;;;;;34.08;34.26;98297.09;6130954;23;20587;-92
2023/06/11 09:32:04;;;;;;;6.30;2.38;;;;;;;34.14;34.33;98293.38;6155054;23;20189;-90
2023/06/11 09:34:31;;;;;;;4.28;2.03;;;;;;;34.06;33.74;98299.25;6157526;23;20178;-88
2023/06/11 09:36:56;;;;;;;6.15;2.30;;;;;;;34.17;33.10;98301.03;6156817;23;20645;-88
2023/06/11 09:39:22;;;;;;;5.15;1.90;;;;;;;34.35;34.50;98292.56;6157662;23;20155;-89
2023/06/11 09:41:50;;;;;;;3.55;1.95;;;;;;;34.56;32.37;98291.75;6157265;23;20171;-89
2023/06/11 09:44:20;;;;;;;4.57;1.80;;;;;;;34.78;32.77;98299.03;6157540;23;20551;-88
2023/06/11 09:46:48;;;;;;;3.50;1.60;;;;;;;34.83;30.27;98299.94;6156686;23;20185;-90
2023/06/11 09:49:16;;;;;;;3.70;1.60;;;;;;;34.41;30.97;98298.84;6131287;23;20171;-91
2023/06/11 09:51:43;;;;;;;4.82;1.55;;;;;;;34.36;31.78;98293.34;6157005;23;20150;-89
2023/06/11 09:54:12;;;;;;;3.50;1.77;;;;;;;34.41;31.00;98296.13;6130680;23;20210;-90
2023/06/11 09:56:42;;;;;;;7.43;1.88;;;;;;;34.38;30.33;98281.13;6156698;23;20528;-90
2023/06/11 09:59:11;;;;;;;4.45;1.60;;;;;;;34.63;31.96;98290.72;6130946;23;20579;-91
2023/06/11 10:01:41;;;;;;;5.88;2.17;;;;;;;34.75;29.74;98285.97;6131349;23;20162;-91
2023/06/11 10:04:08;;;;;;;3.03;1.45;;;;;;;34.46;28.94;98277.97;6131390;23;20178;-89
2023/06/11 10:06:40;;;;;;;3.42;1.67;;;;;;;34.50;30.32;98276.41;6156324;23;20194;-90
2023/06/11 10:09:11;;;;;;;3.33;1.80;;;;;;;34.25;30.36;98275.28;6106418;23;20168;-89
2023/06/11 10:11:43;;;;;;;3.85;1.77;;;;;;;34.56;31.90;98282.75;6156514;23;20214;-89
2023/06/11 10:15:00;;;;;;;3.22;1.67;;;;;;;34.30;29.86;98284.34;6153455;23;20198;-92
2023/06/11 10:18:39;;;;;;;;;;;;;;;;;;;;;
2023/06/11 10:21:06;;;;;;;;;;;;;;;;;;;;;
2023/06/11 10:27:30;;;;;;;;;;;;;;;;;;;;;
2023/06/11 10:29:58;;;;;;;5.30;1.85;;;;;;;34.19;30.31;98257.25;6122855;23;20238;-93
2023/06/11 10:33:03;;;;;;;;;;;;;;;;;;;;;
2023/06/11 10:39:23;;;;;;;;;;;;;;;;;;;;;
2023/06/11 10:42:01;;;;;;;3.65;1.30;;;;;;;34.34;30.73;98252.81;6117613;23;20593;-92
2023/06/11 10:44:39;;;;;;;4.15;1.73;;;;;;;33.93;30.53;98258.78;6156310;23;20619;-92
2023/06/11 10:47:05;;;;;;;5.22;2.05;;;;;;;34.19;30.52;98249.06;6130907;23;20536;-93
2023/06/11 10:53:40;;;;;;;;;;;;;;;;;;;;;
2023/06/11 10:56:41;;;;;;;3.70;1.40;;;;;;;34.75;30.51;98245.91;6153205;23;20238;-93
2023/06/11 10:59:09;;;;;;;2.65;1.30;;;;;;;35.08;28.46;98242.19;6148128;23;20178;-91
2023/06/11 11:02:01;;;;;;;3.88;1.50;;;;;;;35.16;28.58;98239.81;6156875;23;20242;-92
2023/06/11 11:08:18;;;;;;;6.10;1.27;;;;;;;35.11;29.17;98238.97;5899281;24;20256;-92
2023/06/11 11:10:44;;;;;;;3.50;1.50;;;;;;;35.37;27.31;98235.34;5899144;24;20164;-92
2023/06/11 11:13:11;;;;;;;2.40;1.17;;;;;;;35.49;28.22;98240.59;5983561;23;20188;-93
2023/06/11 11:26:18;;;;;;;3.53;1.33;;;;;;;34.80;29.84;98218.75;5991104;23;20162;-92
2023/06/11 11:28:44;;;;;;;3.67;1.23;;;;;;;34.87;29.93;98216.66;6082026;23;20182;-91
2023/06/11 11:31:13;;;;;;;3.22;1.17;;;;;;;34.67;28.24;98221.09;6129631;23;20159;-91
2023/06/11 11:33:42;;;;;;;2.78;1.30;;;;;;;34.63;29.20;98214.50;6130799;23;20179;-92
2023/06/11 11:36:13;;;;;;;7.80;1.13;;;;;;;34.63;29.41;98206.31;6131290;23;20241;-91
2023/06/11 11:38:40;;;;;;;3.33;1.25;;;;;;;34.64;28.97;98207.97;6130597;23;20151;-92
2023/06/11 11:41:29;;;;;;;3.22;1.42;;;;;;;34.22;28.95;98214.03;6130585;23;20203;-93
2023/06/11 11:44:00;;;;;;;6.47;1.50;;;;;;;33.63;30.54;98212.94;6132367;23;20147;-92
2023/06/11 11:50:40;;;;;;;3.60;1.00;;;;;;;34.70;29.49;98201.50;6138670;23;20174;-92
2023/06/11 11:53:43;;;;;;;;;;;;;;;;;;;;;
2023/06/11 11:56:31;;;;;;;2.03;0.95;;;;;;;34.94;27.98;98197.34;6158888;23;20502;-93
2023/06/11 11:59:05;;;;;;;4.57;1.42;;;;;;;34.43;29.33;98207.75;6133740;23;20151;-95
2023/06/11 12:01:36;;;;;;;2.58;1.13;;;;;;;34.64;29.75;98197.09;6132318;23;20147;-94
2023/06/11 12:04:07;;;;;;;3.40;1.23;;;;;;;34.77;28.78;98199.41;6131332;23;20159;-96
2023/06/11 12:06:37;;;;;;;2.45;1.25;;;;;;;34.52;28.50;98200.75;6132072;23;20520;-92
2023/06/11 12:09:05;;;;;;;3.40;1.17;;;;;;;34.46;28.69;98212.66;6132497;23;20251;-93
2023/06/11 12:11:30;;;;;;;3.50;1.50;;;;;;;34.05;28.39;98213.25;6132164;23;20241;-93
2023/06/11 12:13:57;;;;;;;4.05;1.63;;;;;;;33.83;29.17;98207.00;6132480;23;20183;-92
2023/06/11 12:16:23;;;;;;;2.72;1.65;;;;;;;34.06;28.99;98205.91;6132036;23;20237;-93
2023/06/11 12:18:58;;;;;;;3.72;1.40;;;;;;;34.32;28.58;98206.00;6132275;23;20162;-92
2023/06/11 12:21:33;;;;;;;3.00;1.27;;;;;;;34.47;28.50;98203.41;6132767;23;20147;-93
2023/06/11 12:23:59;;;;;;;2.63;1.15;;;;;;;34.58;29.04;98205.22;6132498;23;20146;-93